Time;durP1;ratioP1;P1;durP2;ratioP2;P2;SDS_P1;SDS_P2;PMS_P1;PMS_P2;Temp;Humidity;BMP_temperature;BMP_pressure;BME280_temperature;BME280_humidity;BME280_pressure;Samples;Min_cycle;Max_cycle;Signal;HPM_P1;HPM_P2
2021/12/17 00:04:49;;;;;;;19.58;14.13;;;8.50;99.90;;;;;;5018490;28;90857;-33
2021/12/17 00:07:15;;;;;;;21.80;14.07;;;8.50;99.90;;;;;;5017772;28;88867;-33
2021/12/17 00:09:43;;;;;;;14.70;13.20;;;8.50;99.90;;;;;;5017730;28;90294;-32
2021/12/17 00:12:11;;;;;;;20.37;15.10;;;8.50;99.90;;;;;;5017588;28;89780;-36
2021/12/17 00:14:39;;;;;;;22.10;13.88;;;8.50;99.90;;;;;;5017522;28;89847;-34
2021/12/17 00:17:11;;;;;;;21.02;13.25;;;8.50;99.90;;;;;;5017157;28;88375;-34
2021/12/17 00:49:59;;;;;;;16.05;13.65;;;8.50;99.90;;;;;;5020347;28;88825;-34
2021/12/17 00:52:28;;;;;;;18.13;13.75;;;8.50;99.90;;;;;;5020893;28;90202;-34
2021/12/17 00:54:53;;;;;;;14.10;12.18;;;8.50;99.90;;;;;;5020088;28;91573;-32
2021/12/17 00:57:24;;;;;;;16.52;12.60;;;8.50;99.90;;;;;;5020196;28;95728;-33
2021/12/17 00:59:51;;;;;;;13.15;11.43;;;8.50;99.90;;;;;;5020672;28;89930;-33
2021/12/17 01:02:24;;;;;;;19.03;11.17;;;8.50;99.90;;;;;;5020261;28;89975;-34
2021/12/17 01:04:54;;;;;;;18.55;12.60;;;8.50;99.90;;;;;;5020593;28;89812;-32
2021/12/17 01:07:23;;;;;;;18.35;12.65;;;8.50;99.90;;;;;;5020436;28;90032;-34
2021/12/17 01:09:49;;;;;;;18.70;12.80;;;8.50;99.90;;;;;;5001839;28;89198;-33
2021/12/17 01:12:16;;;;;;;21.15;13.30;;;8.50;99.90;;;;;;5020898;28;90252;-36
2021/12/17 01:14:42;;;;;;;23.02;11.85;;;8.50;99.90;;;;;;5020660;28;89367;-34
2021/12/17 01:17:10;;;;;;;24.88;12.55;;;8.50;99.90;;;;;;5020525;28;90009;-34
2021/12/17 01:25:05;;;;;;;20.27;12.45;;;8.50;99.90;;;;;;5008245;28;89692;-32
2021/12/17 01:35:45;;;;;;;23.73;14.35;;;8.50;99.90;;;;;;5020153;28;89761;-33
2021/12/17 01:39:22;;;;;;;21.65;13.68;;;8.50;99.90;;;;;;5020373;28;89146;-32
2021/12/17 01:43:47;;;;;;;;;;;8.40;99.90;;;;;;5021099;28;88934;-34
2021/12/17 01:46:20;;;;;;;30.63;17.02;;;8.40;99.90;;;;;;5021541;28;90701;-34
2021/12/17 01:49:23;;;;;;;27.27;17.00;;;8.40;99.90;;;;;;5019135;28;91274;-33
2021/12/17 02:00:05;;;;;;;28.48;16.42;;;8.40;99.90;;;;;;5019719;28;90082;-33
2021/12/17 02:02:37;;;;;;;28.83;17.88;;;8.50;99.90;;;;;;5020330;28;90018;-33
2021/12/17 02:05:03;;;;;;;30.35;16.65;;;8.50;99.90;;;;;;5019785;28;91153;-32
2021/12/17 02:07:29;;;;;;;34.38;16.95;;;8.50;99.90;;;;;;5019616;28;89661;-35
2021/12/17 02:13:05;;;;;;;24.30;15.48;;;8.40;99.90;;;;;;5018704;28;89774;-35
2021/12/17 02:21:20;;;;;;;21.77;15.32;;;8.40;99.90;;;;;;5018786;28;90062;-36
2021/12/17 02:29:37;;;;;;;;;;;8.40;99.90;;;;;;5020610;28;90876;-34
2021/12/17 02:32:04;;;;;;;25.27;16.25;;;8.40;99.90;;;;;;5020815;28;88978;-33
2021/12/17 02:37:07;;;;;;;31.33;18.35;;;8.40;99.90;;;;;;5018269;28;90178;-33
2021/12/17 02:40:05;;;;;;;30.00;17.25;;;8.40;99.90;;;;;;5018805;28;89002;-33
2021/12/17 02:45:32;;;;;;;29.83;18.70;;;8.40;99.90;;;;;;5019157;28;90862;-31
2021/12/17 02:45:36;;;;;;;25.80;17.85;;;8.40;99.90;;;;;;5018709;28;88813;-33
2021/12/17 02:48:22;;;;;;;26.75;16.63;;;8.40;99.90;;;;;;5001595;28;89595;-33
2021/12/17 02:50:54;;;;;;;29.52;16.90;;;8.40;99.90;;;;;;4998183;28;90010;-35
2021/12/17 02:53:21;;;;;;;23.45;16.25;;;8.40;99.90;;;;;;4998827;28;89446;-36
2021/12/17 02:55:52;;;;;;;24.88;16.95;;;8.40;99.90;;;;;;4998924;28;89742;-34
2021/12/17 02:58:18;;;;;;;27.48;15.75;;;8.40;99.90;;;;;;4998463;28;90343;-34
2021/12/17 03:00:44;;;;;;;36.70;17.55;;;8.40;99.90;;;;;;4998159;28;89767;-35
2021/12/17 03:03:12;;;;;;;31.35;17.15;;;8.40;99.90;;;;;;4998982;28;89741;-36
2021/12/17 03:05:40;;;;;;;20.85;15.38;;;8.40;99.90;;;;;;4998888;28;88851;-35
2021/12/17 03:08:11;;;;;;;27.00;16.20;;;8.40;99.90;;;;;;4998641;28;90188;-36
2021/12/17 03:10:37;;;;;;;28.40;16.48;;;8.40;99.90;;;;;;4998511;28;89400;-34
2021/12/17 03:13:04;;;;;;;34.83;17.08;;;8.40;99.90;;;;;;4998061;28;90263;-33
2021/12/17 03:23:46;;;;;;;29.63;15.07;;;8.40;99.90;;;;;;4998650;28;90150;-31
2021/12/17 03:29:14;;;;;;;32.65;17.17;;;8.40;99.90;;;;;;5282528;22;89393;-37
2021/12/17 03:31:40;;;;;;;29.42;16.70;;;8.40;99.90;;;;;;4919424;28;90574;-32
2021/12/17 03:34:30;;;;;;;24.42;15.05;;;8.40;99.90;;;;;;4918952;28;90536;-35
2021/12/17 03:36:56;;;;;;;;;;;8.40;99.90;;;;;;4919605;28;87870;-35
2021/12/17 03:39:24;;;;;;;29.40;16.67;;;8.40;99.90;;;;;;4920907;28;90308;-34
2021/12/17 03:41:51;;;;;;;42.23;17.83;;;8.30;99.90;;;;;;4920279;28;89790;-32
2021/12/17 03:44:19;;;;;;;21.30;14.60;;;8.30;99.90;;;;;;4919542;28;89848;-32
2021/12/17 03:46:46;;;;;;;37.30;18.08;;;8.30;99.90;;;;;;4919208;28;88880;-34
2021/12/17 03:49:13;;;;;;;32.55;16.05;;;8.30;99.90;;;;;;4919170;28;90287;-33
2021/12/17 03:51:49;;;;;;;19.50;14.38;;;8.30;99.90;;;;;;4919298;28;90604;-37
2021/12/17 03:54:15;;;;;;;23.58;16.10;;;8.30;99.90;;;;;;4919954;28;89585;-31
2021/12/17 03:56:41;;;;;;;21.45;14.57;;;8.30;99.90;;;;;;4918401;28;90339;-34
2021/12/17 03:59:10;;;;;;;29.95;16.08;;;8.30;99.90;;;;;;4919272;28;90268;-34
2021/12/17 04:01:38;;;;;;;24.25;14.77;;;8.30;99.90;;;;;;4919389;28;89830;-35
2021/12/17 04:04:04;;;;;;;26.00;13.65;;;8.30;99.90;;;;;;4918103;28;89628;-35
2021/12/17 04:06:30;;;;;;;42.88;16.83;;;8.30;99.90;;;;;;4919331;28;89523;-33
2021/12/17 04:08:55;;;;;;;31.35;15.52;;;8.30;99.90;;;;;;4919189;28;91276;-33
2021/12/17 04:11:21;;;;;;;32.00;16.90;;;8.30;99.90;;;;;;4918938;28;89875;-34
2021/12/17 04:13:54;;;;;;;44.22;17.42;;;8.30;99.90;;;;;;4918571;28;89982;-37
2021/12/17 04:16:24;;;;;;;30.23;15.23;;;8.30;99.90;;;;;;4919026;28;88848;-35
2021/12/17 04:18:50;;;;;;;36.80;16.92;;;8.20;99.90;;;;;;4918205;28;90545;-35
2021/12/17 04:21:16;;;;;;;28.92;15.30;;;8.20;99.90;;;;;;4918323;28;90688;-34
2021/12/17 04:23:43;;;;;;;22.85;15.15;;;8.20;99.90;;;;;;4918388;28;90740;-34
2021/12/17 04:26:10;;;;;;;36.92;15.50;;;8.20;99.90;;;;;;4917947;28;88512;-35
2021/12/17 04:28:43;;;;;;;30.23;16.45;;;8.20;99.90;;;;;;4916930;28;90311;-36
2021/12/17 04:31:09;;;;;;;27.70;14.93;;;8.20;99.90;;;;;;4917849;28;89039;-38
2021/12/17 04:33:37;;;;;;;21.02;13.35;;;8.20;99.90;;;;;;4917580;28;89168;-35
2021/12/17 04:36:03;;;;;;;31.08;15.90;;;8.20;99.90;;;;;;4899984;28;88995;-39
2021/12/17 04:38:29;;;;;;;21.00;14.70;;;8.20;99.90;;;;;;4917881;28;90235;-33
2021/12/17 04:41:01;;;;;;;26.48;14.85;;;8.20;99.90;;;;;;4915399;28;89589;-38
2021/12/17 04:46:12;;;;;;;24.73;13.32;;;8.10;99.90;;;;;;4918098;28;90871;-34
2021/12/17 04:59:34;;;;;;;20.15;12.98;;;8.10;99.90;;;;;;4918711;28;90484;-33
2021/12/17 05:02:02;;;;;;;26.08;13.82;;;8.10;99.90;;;;;;4917671;28;89725;-35
2021/12/17 05:04:28;;;;;;;20.63;13.10;;;8.10;99.90;;;;;;4918536;28;89049;-35
2021/12/17 05:06:53;;;;;;;21.35;13.27;;;8.10;99.90;;;;;;4917276;28;87714;-34
2021/12/17 05:09:31;;;;;;;21.17;13.65;;;8.10;99.90;;;;;;4917339;28;90378;-34
2021/12/17 05:18:15;;;;;;;19.02;12.45;;;8.10;99.90;;;;;;4914544;28;90640;-35
2021/12/17 05:20:45;;;;;;;20.20;13.32;;;8.10;99.90;;;;;;4919575;28;90473;-33
2021/12/17 05:23:00;;;;;;;23.73;12.98;;;8.10;99.90;;;;;;4917992;28;89375;-36
2021/12/17 05:25:28;;;;;;;27.77;13.85;;;8.10;99.90;;;;;;4901861;28;89616;-33
2021/12/17 05:27:55;;;;;;;22.38;10.77;;;8.10;99.90;;;;;;4918817;28;90091;-35
2021/12/17 05:30:21;;;;;;;29.10;12.57;;;8.10;99.90;;;;;;4919156;28;90150;-34
2021/12/17 05:32:47;;;;;;;15.80;10.23;;;8.10;99.90;;;;;;4921542;28;89687;-32
2021/12/17 05:35:13;;;;;;;13.93;8.75;;;8.10;99.90;;;;;;4920991;28;89489;-35
2021/12/17 05:37:38;;;;;;;14.40;10.38;;;8.10;99.90;;;;;;4921316;28;89094;-36
2021/12/17 05:40:05;;;;;;;14.10;8.38;;;8.10;99.90;;;;;;4921528;28;90937;-32
2021/12/17 05:42:31;;;;;;;12.75;9.65;;;8.10;99.90;;;;;;4920238;28;90040;-37
2021/12/17 05:45:06;;;;;;;20.88;11.52;;;8.10;99.90;;;;;;4921494;28;88671;-34
2021/12/17 05:47:31;;;;;;;13.55;9.75;;;8.10;99.90;;;;;;4920567;28;89957;-34
2021/12/17 05:49:57;;;;;;;18.55;10.05;;;8.10;99.90;;;;;;4921806;28;90927;-37
2021/12/17 05:52:22;;;;;;;14.07;8.65;;;8.10;99.90;;;;;;4921359;28;90082;-33
2021/12/17 05:54:48;;;;;;;13.40;8.85;;;8.10;99.90;;;;;;4921238;28;96951;-33
2021/12/17 05:57:13;;;;;;;15.52;9.00;;;8.10;99.90;;;;;;4922195;28;88092;-34
2021/12/17 05:59:39;;;;;;;11.27;8.02;;;8.10;99.90;;;;;;4919071;28;96652;-36
2021/12/17 06:02:10;;;;;;;13.80;9.43;;;8.10;99.90;;;;;;4919807;28;90932;-36
2021/12/17 06:04:35;;;;;;;11.55;7.80;;;8.10;99.90;;;;;;4919571;28;90669;-35
2021/12/17 06:07:01;;;;;;;14.55;8.32;;;8.10;99.90;;;;;;4919995;28;89333;-36
2021/12/17 06:09:26;;;;;;;9.18;7.85;;;8.00;99.90;;;;;;4920908;28;90467;-33
2021/12/17 06:11:52;;;;;;;14.18;8.07;;;8.00;99.90;;;;;;4921336;28;90143;-33
2021/12/17 06:14:17;;;;;;;10.60;6.72;;;8.10;99.90;;;;;;4921096;28;90337;-32
2021/12/17 06:16:43;;;;;;;9.95;6.85;;;8.10;99.90;;;;;;4921154;28;90837;-36
2021/12/17 06:19:09;;;;;;;12.90;7.95;;;8.10;99.90;;;;;;4921090;28;90553;-36
2021/12/17 06:21:34;;;;;;;11.93;7.68;;;8.00;99.90;;;;;;4921361;28;91100;-34
2021/12/17 06:24:00;;;;;;;8.25;6.60;;;8.00;99.90;;;;;;4920336;28;103647;-32
2021/12/17 06:26:26;;;;;;;10.38;7.60;;;8.00;99.90;;;;;;4919584;28;89971;-33
2021/12/17 06:28:51;;;;;;;10.80;8.15;;;8.00;99.90;;;;;;4921161;28;88941;-37
2021/12/17 06:31:23;;;;;;;9.90;7.13;;;8.00;99.90;;;;;;4921024;28;89574;-36
2021/12/17 06:33:49;;;;;;;9.25;5.45;;;8.00;99.90;;;;;;4921030;28;90236;-37
2021/12/17 06:36:14;;;;;;;12.65;6.20;;;8.00;99.90;;;;;;4921139;28;89640;-37
2021/12/17 06:38:40;;;;;;;10.30;6.47;;;8.00;99.90;;;;;;4903179;28;90727;-36
2021/12/17 06:41:05;;;;;;;12.18;7.57;;;8.00;99.90;;;;;;4921219;28;89272;-33
2021/12/17 06:43:39;;;;;;;15.63;6.90;;;8.00;99.90;;;;;;4920932;28;89523;-33
2021/12/17 06:46:21;;;;;;;12.77;6.90;;;8.00;99.90;;;;;;4920820;28;90147;-34
2021/12/17 06:48:48;;;;;;;17.60;7.75;;;8.00;99.90;;;;;;4920124;28;90352;-35
2021/12/17 06:57:36;;;;;;;9.40;7.38;;;7.90;99.90;;;;;;4921203;28;89156;-34
2021/12/17 06:59:49;;;;;;;8.50;6.90;;;8.00;99.90;;;;;;4917078;28;91080;-35
2021/12/17 07:10:17;;;;;;;11.80;7.78;;;8.00;99.90;;;;;;4918662;28;90498;-32
2021/12/17 07:21:10;;;;;;;10.75;7.25;;;8.00;99.90;;;;;;4918140;28;89650;-35
2021/12/17 07:29:44;;;;;;;7.63;6.47;;;8.00;99.90;;;;;;4917606;28;88774;-36
2021/12/17 07:34:31;;;;;;;9.98;7.22;;;8.00;99.90;;;;;;4917565;28;89999;-36
2021/12/17 14:11:25;;;;;;;5.93;4.78;;;9.40;99.90;;;;;;4924619;28;88393;-35
2021/12/17 14:41:22;;;;;;;3.55;3.13;;;9.40;99.90;;;;;;4872403;28;88531;-38
2021/12/17 14:44:19;;;;;;;3.22;2.92;;;9.40;99.90;;;;;;4912365;27;88634;-41
2021/12/17 14:46:48;;;;;;;3.75;2.58;;;9.40;99.90;;;;;;4943070;28;88151;-44
2021/12/17 15:02:45;;;;;;;;;;;9.20;99.90;;;;;;4938567;28;89546;-38
2021/12/17 15:05:12;;;;;;;5.40;3.40;;;9.20;99.90;;;;;;4937523;28;87609;-37
2021/12/17 15:07:39;;;;;;;3.83;3.28;;;9.20;99.90;;;;;;4935104;28;89652;-38
2021/12/17 15:10:07;;;;;;;5.07;3.25;;;9.20;99.90;;;;;;4934610;28;90409;-37
2021/12/17 15:15:15;;;;;;;6.43;4.38;;;9.20;99.90;;;;;;4936075;28;89160;-42
2021/12/17 15:17:42;;;;;;;5.53;4.60;;;9.20;99.90;;;;;;4791088;28;90183;-44
2021/12/17 15:20:10;;;;;;;4.55;4.05;;;9.20;99.90;;;;;;4927590;28;90979;-38
2021/12/17 15:22:37;;;;;;;4.68;4.28;;;9.20;99.90;;;;;;4935954;28;89733;-41
2021/12/17 15:25:04;;;;;;;4.30;3.55;;;9.20;99.90;;;;;;4935330;28;88854;-41
2021/12/17 15:27:33;;;;;;;5.40;4.90;;;9.10;99.90;;;;;;4935545;28;88429;-39
2021/12/17 15:30:03;;;;;;;4.65;4.25;;;9.10;99.90;;;;;;4934752;28;90169;-37
2021/12/17 15:32:29;;;;;;;7.10;4.15;;;9.10;99.90;;;;;;4935148;28;88649;-46
2021/12/17 15:34:54;;;;;;;7.97;4.72;;;9.10;99.90;;;;;;4934876;28;89485;-36
2021/12/17 15:37:21;;;;;;;5.53;5.03;;;9.10;99.90;;;;;;4935404;28;89748;-38
2021/12/17 15:39:46;;;;;;;5.25;4.75;;;9.10;99.90;;;;;;4934451;28;89733;-36
2021/12/17 15:42:12;;;;;;;7.00;5.20;;;9.10;99.90;;;;;;4935142;28;91429;-40
2021/12/17 15:44:38;;;;;;;6.05;5.45;;;9.10;99.90;;;;;;4935429;28;88077;-35
2021/12/17 15:47:08;;;;;;;10.45;7.00;;;9.10;99.90;;;;;;4935318;28;87930;-38
2021/12/17 15:49:37;;;;;;;7.40;6.70;;;9.10;99.90;;;;;;4934771;28;91195;-40
2021/12/17 15:52:05;;;;;;;6.45;5.85;;;9.10;99.90;;;;;;4925128;28;89168;-36
2021/12/17 15:54:31;;;;;;;12.30;5.28;;;9.10;99.90;;;;;;4922093;28;88517;-39
2021/12/17 15:56:57;;;;;;;8.18;6.40;;;9.10;99.90;;;;;;4921820;28;90044;-44
2021/12/17 15:59:23;;;;;;;6.75;5.70;;;9.00;99.90;;;;;;4921738;28;90123;-37
2021/12/17 16:01:48;;;;;;;7.00;5.45;;;9.10;99.90;;;;;;4921408;28;89653;-36
2021/12/17 16:04:14;;;;;;;5.97;5.47;;;9.10;99.90;;;;;;4922850;28;89854;-41
2021/12/17 16:06:40;;;;;;;9.50;5.22;;;9.00;99.90;;;;;;4922531;28;87788;-39
2021/12/17 16:09:13;;;;;;;9.30;5.78;;;9.00;99.90;;;;;;4922007;28;91672;-39
2021/12/17 16:21:56;;;;;;;8.13;5.57;;;8.90;99.90;;;;;;4921454;28;89644;-40
2021/12/17 16:24:23;;;;;;;9.43;5.32;;;9.00;99.90;;;;;;4921069;28;88916;-44
2021/12/17 16:26:49;;;;;;;8.98;5.38;;;9.00;99.90;;;;;;4922249;28;89214;-42
2021/12/17 16:29:18;;;;;;;9.20;6.43;;;8.90;99.90;;;;;;4848244;28;90349;-34
2021/12/17 16:31:45;;;;;;;8.45;7.03;;;8.90;99.90;;;;;;4965371;28;89573;-40
2021/12/17 16:34:11;;;;;;;6.13;5.55;;;8.90;99.90;;;;;;4909418;28;87954;-39
2021/12/17 16:36:39;;;;;;;12.70;7.07;;;8.90;99.90;;;;;;4922566;28;89140;-36
2021/12/17 16:39:08;;;;;;;6.20;5.60;;;8.90;99.90;;;;;;4896571;28;90411;-43
2021/12/17 16:41:35;;;;;;;7.85;7.05;;;8.90;99.90;;;;;;4922268;28;88884;-37
2021/12/17 16:44:04;;;;;;;8.15;5.85;;;8.90;99.90;;;;;;4921943;28;87851;-42
2021/12/17 16:49:03;;;;;;;12.27;9.35;;;8.90;99.90;;;;;;4920987;28;89873;-38
2021/12/17 16:51:29;;;;;;;9.48;7.85;;;8.90;99.90;;;;;;4921350;28;88937;-37
2021/12/17 16:53:57;;;;;;;8.15;7.35;;;8.90;99.90;;;;;;4921767;28;89661;-36
2021/12/17 16:56:22;;;;;;;10.10;8.75;;;9.00;99.90;;;;;;4921083;28;88883;-42
2021/12/17 16:58:48;;;;;;;7.93;6.95;;;8.90;99.90;;;;;;4919950;28;90277;-42
2021/12/17 17:01:14;;;;;;;9.55;7.38;;;8.90;99.90;;;;;;4921174;28;89759;-41
2021/12/17 17:03:40;;;;;;;12.52;7.20;;;8.90;99.90;;;;;;4919644;28;88191;-41
2021/12/17 17:06:05;;;;;;;9.48;7.78;;;8.90;99.90;;;;;;4922043;28;87659;-42
2021/12/17 17:08:31;;;;;;;8.80;7.07;;;8.90;99.90;;;;;;4920677;28;89718;-40
2021/12/17 17:11:02;;;;;;;8.55;7.68;;;8.90;99.90;;;;;;4920510;28;89534;-44
2021/12/17 17:13:28;;;;;;;8.48;7.68;;;8.90;99.90;;;;;;4920958;28;88745;-38
2021/12/17 17:15:56;;;;;;;14.32;8.60;;;8.90;99.90;;;;;;4920947;28;89475;-39
2021/12/17 17:18:22;;;;;;;8.48;7.65;;;8.90;99.90;;;;;;4921184;28;89135;-39
2021/12/17 17:20:48;;;;;;;9.70;8.73;;;8.90;99.90;;;;;;4920417;28;89732;-41
2021/12/17 17:23:13;;;;;;;17.23;12.25;;;8.90;99.90;;;;;;4921207;28;89554;-40
2021/12/17 17:25:39;;;;;;;11.02;9.55;;;8.90;99.90;;;;;;4917500;28;89052;-42
2021/12/17 17:28:06;;;;;;;10.45;9.40;;;8.90;99.90;;;;;;4920191;28;90252;-38
2021/12/17 17:30:34;;;;;;;11.82;8.55;;;8.90;99.90;;;;;;4919925;28;88592;-39
2021/12/17 17:33:00;;;;;;;11.00;9.93;;;8.90;99.90;;;;;;4919923;28;89051;-41
2021/12/17 17:35:25;;;;;;;12.63;10.15;;;8.90;99.90;;;;;;4919892;28;88784;-42
2021/12/17 17:37:51;;;;;;;10.70;8.63;;;8.90;99.90;;;;;;4919004;28;90394;-42
2021/12/17 17:40:16;;;;;;;9.70;7.47;;;8.90;99.90;;;;;;4919398;28;89485;-43
2021/12/17 17:42:42;;;;;;;9.35;8.05;;;8.90;99.90;;;;;;4921357;28;90086;-35
2021/12/17 17:45:08;;;;;;;9.77;7.03;;;8.90;99.90;;;;;;4919819;28;88471;-41
2021/12/17 17:47:34;;;;;;;10.85;8.70;;;8.90;99.90;;;;;;4920639;28;90835;-39
2021/12/17 17:50:00;;;;;;;9.25;8.05;;;8.90;99.90;;;;;;4921357;28;88579;-38
2021/12/17 17:52:26;;;;;;;9.90;8.27;;;8.90;99.90;;;;;;4922627;28;88041;-42
2021/12/17 17:54:51;;;;;;;11.10;8.52;;;8.90;99.90;;;;;;4921562;28;88822;-38
2021/12/17 17:57:17;;;;;;;9.95;7.65;;;8.90;99.90;;;;;;4921782;28;90274;-43
2021/12/17 17:59:48;;;;;;;8.13;7.32;;;8.90;99.90;;;;;;4921218;28;89004;-46
2021/12/17 18:02:17;;;;;;;9.27;8.10;;;8.90;99.90;;;;;;4923738;28;87900;-44
2021/12/17 18:04:43;;;;;;;11.65;9.57;;;8.90;99.90;;;;;;4924220;28;87667;-41
2021/12/17 18:07:12;;;;;;;13.63;9.18;;;8.90;99.90;;;;;;4924462;28;88844;-41
2021/12/17 18:09:40;;;;;;;12.63;11.32;;;8.90;99.90;;;;;;4923381;28;89188;-45
2021/12/17 18:12:08;;;;;;;10.07;7.07;;;8.90;99.90;;;;;;4922208;28;87580;-43
2021/12/17 18:14:35;;;;;;;7.57;6.77;;;8.90;99.90;;;;;;4923471;28;88295;-47
2021/12/17 18:17:03;;;;;;;7.95;7.20;;;8.80;99.90;;;;;;4923098;28;90792;-45
2021/12/17 18:19:30;;;;;;;7.68;6.55;;;8.80;99.90;;;;;;4923619;28;89163;-43
2021/12/17 18:21:55;;;;;;;9.75;6.80;;;8.80;99.90;;;;;;4923197;28;88738;-44
2021/12/17 18:24:21;;;;;;;8.05;6.75;;;8.80;99.90;;;;;;4924128;28;88670;-45
2021/12/17 18:26:47;;;;;;;7.18;6.45;;;8.90;99.90;;;;;;4922757;28;90187;-42
2021/12/17 18:29:13;;;;;;;8.23;6.28;;;8.90;99.90;;;;;;4921677;28;89160;-47
2021/12/17 18:31:38;;;;;;;6.63;6.03;;;8.80;99.90;;;;;;4906942;28;89055;-46
2021/12/17 18:34:04;;;;;;;7.55;6.45;;;8.70;99.90;;;;;;4923256;28;88907;-46
2021/12/17 18:36:30;;;;;;;5.95;4.93;;;8.70;99.90;;;;;;4923415;28;90851;-44
2021/12/17 18:38:56;;;;;;;5.20;4.70;;;8.70;99.90;;;;;;4922514;28;90243;-42
2021/12/17 18:41:28;;;;;;;5.90;5.18;;;8.70;99.90;;;;;;4923657;28;87580;-46
2021/12/17 18:44:08;;;;;;;5.30;4.88;;;8.70;99.90;;;;;;4921902;28;88821;-43
2021/12/17 18:46:36;;;;;;;5.43;4.38;;;8.70;99.90;;;;;;4922814;28;89747;-44
2021/12/17 18:49:03;;;;;;;4.90;4.22;;;8.60;99.90;;;;;;4922404;28;90336;-44
2021/12/17 18:51:29;;;;;;;4.70;4.00;;;8.60;99.90;;;;;;4922704;28;87672;-46
2021/12/17 18:53:54;;;;;;;19.20;16.50;;;8.60;99.90;;;;;;4922276;28;88177;-42
2021/12/17 18:56:25;;;;;;;7.32;6.60;;;8.60;99.90;;;;;;4921927;28;90579;-44
2021/12/17 18:58:55;;;;;;;5.57;5.07;;;8.50;99.90;;;;;;4922836;28;89655;-47
2021/12/17 19:01:21;;;;;;;5.38;4.35;;;8.50;99.90;;;;;;4923267;28;89020;-42
2021/12/17 19:03:47;;;;;;;6.15;4.15;;;8.50;99.90;;;;;;4922853;28;88181;-40
2021/12/17 19:06:13;;;;;;;4.20;3.65;;;8.50;99.90;;;;;;4922317;28;88881;-44
2021/12/17 19:08:41;;;;;;;4.32;3.70;;;8.50;99.90;;;;;;4923111;28;88714;-43
2021/12/17 19:11:08;;;;;;;3.63;3.22;;;8.50;99.90;;;;;;4923201;28;88744;-46
2021/12/17 19:13:33;;;;;;;9.00;3.33;;;8.50;99.90;;;;;;4922600;28;89163;-45
2021/12/17 19:15:59;;;;;;;3.65;3.17;;;8.40;99.90;;;;;;4921313;28;90524;-43
2021/12/17 19:18:43;;;;;;;3.08;2.88;;;8.40;99.90;;;;;;4923360;28;88739;-45
2021/12/17 19:21:30;;;;;;;3.13;2.80;;;8.40;99.90;;;;;;4921334;28;87595;-42
2021/12/17 19:24:01;;;;;;;2.47;2.10;;;8.40;99.90;;;;;;4922081;28;88079;-43
2021/12/17 19:26:27;;;;;;;2.45;2.05;;;8.30;99.90;;;;;;4922697;28;90382;-43
2021/12/17 19:28:55;;;;;;;2.42;2.22;;;8.30;99.90;;;;;;4924842;28;89944;-47
2021/12/17 19:31:21;;;;;;;3.20;3.00;;;8.20;99.90;;;;;;4923399;28;88929;-42
2021/12/17 19:33:47;;;;;;;4.07;3.20;;;8.20;99.90;;;;;;4925989;28;88368;-45
2021/12/17 19:36:13;;;;;;;6.00;2.65;;;8.10;99.90;;;;;;4925794;28;89924;-43
2021/12/17 19:38:40;;;;;;;2.67;2.47;;;8.10;99.90;;;;;;4925852;28;89701;-43
2021/12/17 19:41:06;;;;;;;2.90;2.58;;;8.10;99.90;;;;;;4926245;28;87929;-43
2021/12/17 19:43:34;;;;;;;3.97;3.58;;;8.10;99.90;;;;;;4927612;28;88574;-46
2021/12/17 19:46:02;;;;;;;4.90;4.00;;;8.20;99.90;;;;;;4927620;28;90193;-43
2021/12/17 19:48:35;;;;;;;;;;;8.10;99.90;;;;;;4927752;28;90064;-43
2021/12/17 19:51:13;;;;;;;4.00;3.40;;;8.10;99.90;;;;;;4927709;28;88186;-42
2021/12/17 19:53:39;;;;;;;4.88;4.07;;;8.10;99.90;;;;;;4886591;28;90249;-41
2021/12/17 19:56:04;;;;;;;8.18;5.25;;;8.00;99.90;;;;;;4934927;28;89378;-38
2021/12/17 19:58:30;;;;;;;11.45;7.38;;;8.00;99.90;;;;;;4926024;28;89637;-44
2021/12/17 20:00:57;;;;;;;8.45;7.65;;;8.10;99.90;;;;;;4925616;28;88734;-44
2021/12/17 20:03:27;;;;;;;6.10;5.50;;;8.10;99.90;;;;;;4929075;28;88229;-41
2021/12/17 20:05:54;;;;;;;7.88;7.07;;;8.00;99.90;;;;;;4927708;28;89679;-42
2021/12/17 20:08:22;;;;;;;7.40;5.07;;;8.00;99.90;;;;;;4928080;28;89465;-42
2021/12/17 20:18:14;;;;;;;8.48;6.72;;;7.90;99.90;;;;;;4933129;28;88923;-44
2021/12/17 20:20:45;;;;;;;7.78;7.07;;;7.90;99.90;;;;;;4942103;28;89559;-44
2021/12/17 20:23:12;;;;;;;6.30;5.35;;;7.80;99.90;;;;;;4938862;28;88168;-44
2021/12/17 20:25:39;;;;;;;6.17;5.67;;;7.80;99.90;;;;;;4924518;28;88094;-42
2021/12/17 20:28:06;;;;;;;13.25;6.90;;;7.80;99.90;;;;;;4924677;28;89636;-46
2021/12/17 20:30:32;;;;;;;6.45;5.35;;;7.80;99.90;;;;;;4926270;28;89108;-44
2021/12/17 20:32:58;;;;;;;21.15;13.77;;;7.90;99.90;;;;;;4925750;28;88757;-41
2021/12/17 20:35:24;;;;;;;6.35;5.75;;;7.90;99.90;;;;;;4923847;28;88847;-45
2021/12/17 20:37:50;;;;;;;11.02;5.47;;;7.80;99.90;;;;;;4926630;28;90216;-43
2021/12/17 20:40:20;;;;;;;7.25;5.30;;;7.80;99.90;;;;;;4925285;28;89904;-44
2021/12/17 20:42:49;;;;;;;9.75;5.93;;;7.70;99.90;;;;;;4925333;28;87622;-43
2021/12/17 20:45:19;;;;;;;9.80;6.45;;;7.60;99.90;;;;;;4926201;28;89371;-40
2021/12/17 20:47:45;;;;;;;8.52;7.35;;;7.60;99.90;;;;;;4926014;28;90703;-46
2021/12/17 20:50:11;;;;;;;8.10;6.75;;;7.60;99.90;;;;;;4924839;28;89927;-44
2021/12/17 20:52:39;;;;;;;9.20;6.25;;;7.60;99.90;;;;;;4925542;28;88009;-41
2021/12/17 20:55:09;;;;;;;9.23;7.38;;;7.60;99.90;;;;;;4926732;28;88550;-42
2021/12/17 20:57:35;;;;;;;10.80;8.40;;;7.60;99.90;;;;;;4923802;28;90316;-45
2021/12/17 21:00:01;;;;;;;8.52;6.50;;;7.60;99.90;;;;;;4924563;28;89743;-41
2021/12/17 21:02:26;;;;;;;6.65;5.70;;;7.60;99.90;;;;;;4925152;28;87940;-42
2021/12/17 21:04:52;;;;;;;8.20;5.97;;;7.60;99.90;;;;;;4926714;28;89571;-42
2021/12/17 21:07:18;;;;;;;22.25;8.10;;;7.60;99.90;;;;;;4923996;28;90507;-41
2021/12/17 21:09:44;;;;;;;14.05;7.78;;;7.60;99.90;;;;;;4923330;28;89853;-45
2021/12/17 21:12:10;;;;;;;15.57;8.07;;;7.60;99.90;;;;;;4923242;28;88256;-43
2021/12/17 21:14:35;;;;;;;15.02;8.18;;;7.60;99.90;;;;;;4924266;28;89019;-42
2021/12/17 21:17:03;;;;;;;9.32;7.20;;;7.70;99.90;;;;;;4925500;28;90138;-41
2021/12/17 21:19:29;;;;;;;7.57;6.88;;;7.60;99.90;;;;;;4924266;28;89829;-45
2021/12/17 21:21:56;;;;;;;8.77;7.32;;;7.70;99.90;;;;;;4923400;28;88526;-44
2021/12/17 21:24:23;;;;;;;11.57;7.40;;;7.70;99.90;;;;;;4924596;28;88430;-44
2021/12/17 21:26:51;;;;;;;10.75;7.55;;;7.60;99.90;;;;;;4925003;28;90274;-43
2021/12/17 21:29:18;;;;;;;10.67;8.70;;;7.60;99.90;;;;;;4924375;28;90108;-42
2021/12/17 21:31:48;;;;;;;11.77;7.32;;;7.60;99.90;;;;;;4925475;28;89087;-37
2021/12/17 21:34:15;;;;;;;8.25;6.38;;;7.60;99.90;;;;;;4924640;28;87600;-44
2021/12/17 21:36:41;;;;;;;10.13;6.97;;;7.60;99.90;;;;;;4923764;28;90674;-47
2021/12/17 21:39:08;;;;;;;10.07;6.90;;;7.50;99.90;;;;;;4923663;28;89720;-46
2021/12/17 21:41:34;;;;;;;10.65;7.07;;;7.60;99.90;;;;;;4925207;28;88153;-41
2021/12/17 21:44:03;;;;;;;10.35;7.00;;;7.50;99.90;;;;;;4924869;28;88711;-45
2021/12/17 21:46:29;;;;;;;;;;;7.50;99.90;;;;;;4925076;28;89700;-45
2021/12/17 21:48:55;;;;;;;11.52;7.30;;;7.40;99.90;;;;;;4925259;28;89323;-43
2021/12/17 21:51:21;;;;;;;9.20;6.82;;;7.40;99.90;;;;;;4939836;28;88657;-46
2021/12/17 21:53:48;;;;;;;11.68;7.47;;;7.40;99.90;;;;;;4924860;28;87993;-46
2021/12/17 21:56:15;;;;;;;8.80;7.03;;;7.40;99.90;;;;;;4925404;28;88896;-42
2021/12/17 21:58:41;;;;;;;11.05;6.45;;;7.40;99.90;;;;;;4924792;28;88973;-41
2021/12/17 22:01:09;;;;;;;6.55;5.70;;;7.40;99.90;;;;;;4924730;28;88671;-44
2021/12/17 22:03:37;;;;;;;8.95;5.75;;;7.40;99.90;;;;;;4925068;28;88918;-46
2021/12/17 22:06:03;;;;;;;11.63;5.65;;;7.30;99.90;;;;;;4923726;28;90666;-42
2021/12/17 22:08:30;;;;;;;6.10;5.25;;;7.30;99.90;;;;;;4925524;28;89617;-42
2021/12/17 22:10:58;;;;;;;9.00;6.05;;;7.30;99.90;;;;;;4925013;28;89006;-43
2021/12/17 22:13:24;;;;;;;6.95;5.38;;;7.20;99.90;;;;;;4926152;28;88996;-41
2021/12/17 22:15:50;;;;;;;7.65;5.47;;;7.20;99.90;;;;;;4925134;28;89710;-40
2021/12/17 22:18:19;;;;;;;8.13;6.13;;;7.20;99.90;;;;;;4925487;28;89277;-44
2021/12/17 22:20:57;;;;;;;12.20;6.40;;;7.20;99.90;;;;;;4925350;28;88918;-45
2021/12/17 22:23:23;;;;;;;;;;;7.20;99.90;;;;;;4940498;28;88463;-43
2021/12/17 22:25:49;;;;;;;11.88;6.10;;;7.20;99.90;;;;;;4924536;28;90105;-42
2021/12/17 22:28:15;;;;;;;10.88;6.15;;;7.20;99.90;;;;;;4923810;28;89834;-47
2021/12/17 22:30:43;;;;;;;14.68;7.07;;;7.20;99.90;;;;;;4925224;28;87885;-44
2021/12/17 22:33:10;;;;;;;14.23;7.90;;;7.20;99.90;;;;;;4925038;28;88320;-41
2021/12/17 22:35:35;;;;;;;7.40;5.90;;;7.20;99.90;;;;;;4924049;28;90885;-46
2021/12/17 22:38:03;;;;;;;13.38;7.03;;;7.20;99.90;;;;;;4925122;28;88520;-42
2021/12/17 22:40:36;;;;;;;8.90;6.57;;;7.20;99.90;;;;;;4906966;28;89315;-43
2021/12/17 22:43:12;;;;;;;11.20;6.38;;;7.20;99.90;;;;;;4925665;28;88511;-46
2021/12/17 22:45:43;;;;;;;11.80;6.80;;;7.20;99.90;;;;;;4923883;28;90824;-45
2021/12/17 22:48:15;;;;;;;8.68;6.93;;;7.20;99.90;;;;;;4924953;28;88948;-43
2021/12/17 22:50:42;;;;;;;11.50;7.50;;;7.20;99.90;;;;;;4925664;28;87602;-45